sensor_id;sensor_type;location;lat;lon;timestamp;temperature;humidity
40996;DHT22;26723;57.478;12.066;2022-08-18T00:00:11;19.90;99.90
40996;DHT22;26723;57.478;12.066;2022-08-18T00:03:27;19.80;99.90
40996;DHT22;26723;57.478;12.066;2022-08-18T00:06:56;19.90;99.90
40996;DHT22;26723;57.478;12.066;2022-08-18T00:10:06;19.90;99.90
40996;DHT22;26723;57.478;12.066;2022-08-18T00:13:24;19.90;99.90
40996;DHT22;26723;57.478;12.066;2022-08-18T00:16:32;19.90;99.90
40996;DHT22;26723;57.478;12.066;2022-08-18T00:19:42;19.90;99.90
40996;DHT22;26723;57.478;12.066;2022-08-18T00:22:53;19.90;99.90
40996;DHT22;26723;57.478;12.066;2022-08-18T00:26:03;20.00;99.90
40996;DHT22;26723;57.478;12.066;2022-08-18T00:29:12;19.90;99.90
40996;DHT22;26723;57.478;12.066;2022-08-18T00:32:23;19.90;99.90
40996;DHT22;26723;57.478;12.066;2022-08-18T00:35:34;19.80;99.90
40996;DHT22;26723;57.478;12.066;2022-08-18T00:38:43;19.70;99.90
40996;DHT22;26723;57.478;12.066;2022-08-18T00:41:51;19.70;99.90
40996;DHT22;26723;57.478;12.066;2022-08-18T00:45:04;19.60;99.90
40996;DHT22;26723;57.478;12.066;2022-08-18T00:48:13;19.60;99.90
40996;DHT22;26723;57.478;12.066;2022-08-18T00:51:25;19.60;99.90
40996;DHT22;26723;57.478;12.066;2022-08-18T00:54:35;19.50;99.90
40996;DHT22;26723;57.478;12.066;2022-08-18T00:57:48;19.60;99.90
40996;DHT22;26723;57.478;12.066;2022-08-18T01:00:58;19.60;99.90
40996;DHT22;26723;57.478;12.066;2022-08-18T01:04:13;19.50;99.90
40996;DHT22;26723;57.478;12.066;2022-08-18T01:07:26;19.50;99.90
40996;DHT22;26723;57.478;12.066;2022-08-18T01:10:35;19.50;99.90
40996;DHT22;26723;57.478;12.066;2022-08-18T01:13:44;19.60;99.90
40996;DHT22;26723;57.478;12.066;2022-08-18T01:16:53;19.50;99.90
40996;DHT22;26723;57.478;12.066;2022-08-18T01:20:24;19.60;99.90
40996;DHT22;26723;57.478;12.066;2022-08-18T01:23:54;19.60;99.90
40996;DHT22;26723;57.478;12.066;2022-08-18T01:27:03;19.70;99.90
40996;DHT22;26723;57.478;12.066;2022-08-18T01:30:13;19.70;99.90
40996;DHT22;26723;57.478;12.066;2022-08-18T01:33:21;19.80;99.90
40996;DHT22;26723;57.478;12.066;2022-08-18T01:36:37;19.70;99.90
40996;DHT22;26723;57.478;12.066;2022-08-18T01:39:48;19.60;99.90
40996;DHT22;26723;57.478;12.066;2022-08-18T01:43:16;19.50;99.90
40996;DHT22;26723;57.478;12.066;2022-08-18T01:46:25;19.50;99.90
40996;DHT22;26723;57.478;12.066;2022-08-18T01:49:33;19.40;99.90
40996;DHT22;26723;57.478;12.066;2022-08-18T01:52:42;19.40;99.90
40996;DHT22;26723;57.478;12.066;2022-08-18T01:55:51;19.30;99.90
40996;DHT22;26723;57.478;12.066;2022-08-18T01:59:01;19.30;99.90
40996;DHT22;26723;57.478;12.066;2022-08-18T02:02:13;19.30;99.90
40996;DHT22;26723;57.478;12.066;2022-08-18T02:05:31;19.20;99.90
40996;DHT22;26723;57.478;12.066;2022-08-18T02:08:40;19.20;99.90
40996;DHT22;26723;57.478;12.066;2022-08-18T02:11:57;19.20;99.90
40996;DHT22;26723;57.478;12.066;2022-08-18T02:15:07;19.20;99.90
40996;DHT22;26723;57.478;12.066;2022-08-18T02:18:24;19.10;99.90
40996;DHT22;26723;57.478;12.066;2022-08-18T02:21:53;19.00;99.90
40996;DHT22;26723;57.478;12.066;2022-08-18T02:25:03;19.00;99.90
40996;DHT22;26723;57.478;12.066;2022-08-18T02:28:14;19.00;99.90
40996;DHT22;26723;57.478;12.066;2022-08-18T02:31:23;19.00;99.90
40996;DHT22;26723;57.478;12.066;2022-08-18T02:34:31;19.00;99.90
40996;DHT22;26723;57.478;12.066;2022-08-18T02:37:40;19.00;99.90
40996;DHT22;26723;57.478;12.066;2022-08-18T02:40:53;18.90;99.90
40996;DHT22;26723;57.478;12.066;2022-08-18T02:44:05;18.80;99.90
40996;DHT22;26723;57.478;12.066;2022-08-18T02:47:14;18.90;99.90
40996;DHT22;26723;57.478;12.066;2022-08-18T02:50:22;18.80;99.90
40996;DHT22;26723;57.478;12.066;2022-08-18T02:53:31;18.80;99.90
40996;DHT22;26723;57.478;12.066;2022-08-18T02:56:39;18.80;99.90
40996;DHT22;26723;57.478;12.066;2022-08-18T02:59:49;18.80;99.90
40996;DHT22;26723;57.478;12.066;2022-08-18T03:02:57;18.90;99.90
40996;DHT22;26723;57.478;12.066;2022-08-18T03:06:06;18.90;99.90
40996;DHT22;26723;57.478;12.066;2022-08-18T03:09:15;18.80;99.90
40996;DHT22;26723;57.478;12.066;2022-08-18T03:12:24;18.80;99.90
40996;DHT22;26723;57.478;12.066;2022-08-18T03:15:33;18.70;99.90
40996;DHT22;26723;57.478;12.066;2022-08-18T03:18:42;18.70;99.90
40996;DHT22;26723;57.478;12.066;2022-08-18T03:21:50;18.70;99.90
40996;DHT22;26723;57.478;12.066;2022-08-18T03:25:04;18.70;99.90
40996;DHT22;26723;57.478;12.066;2022-08-18T03:28:13;18.70;99.90
40996;DHT22;26723;57.478;12.066;2022-08-18T03:31:23;18.60;99.90
40996;DHT22;26723;57.478;12.066;2022-08-18T03:34:34;18.60;99.90
40996;DHT22;26723;57.478;12.066;2022-08-18T03:37:42;18.60;99.90
40996;DHT22;26723;57.478;12.066;2022-08-18T03:40:51;18.70;99.90
40996;DHT22;26723;57.478;12.066;2022-08-18T03:44:00;18.70;99.90
40996;DHT22;26723;57.478;12.066;2022-08-18T03:47:10;18.70;99.90
40996;DHT22;26723;57.478;12.066;2022-08-18T03:50:18;18.70;99.90
40996;DHT22;26723;57.478;12.066;2022-08-18T03:53:27;18.50;99.90
40996;DHT22;26723;57.478;12.066;2022-08-18T03:56:37;18.50;99.90
40996;DHT22;26723;57.478;12.066;2022-08-18T03:59:45;18.70;99.90
40996;DHT22;26723;57.478;12.066;2022-08-18T04:02:55;18.70;99.90
40996;DHT22;26723;57.478;12.066;2022-08-18T04:06:05;18.70;99.90
40996;DHT22;26723;57.478;12.066;2022-08-18T04:09:19;18.80;99.90
40996;DHT22;26723;57.478;12.066;2022-08-18T04:12:27;18.80;99.90
40996;DHT22;26723;57.478;12.066;2022-08-18T04:15:36;18.70;99.90
40996;DHT22;26723;57.478;12.066;2022-08-18T04:18:46;18.80;99.90
40996;DHT22;26723;57.478;12.066;2022-08-18T04:21:55;18.80;99.90
40996;DHT22;26723;57.478;12.066;2022-08-18T04:25:05;18.70;99.90
40996;DHT22;26723;57.478;12.066;2022-08-18T04:28:15;18.70;99.90
40996;DHT22;26723;57.478;12.066;2022-08-18T04:31:23;18.70;99.90
40996;DHT22;26723;57.478;12.066;2022-08-18T04:34:33;18.70;99.90
40996;DHT22;26723;57.478;12.066;2022-08-18T04:37:42;18.70;99.90
40996;DHT22;26723;57.478;12.066;2022-08-18T04:40:50;18.70;99.90
40996;DHT22;26723;57.478;12.066;2022-08-18T04:44:01;18.80;99.90
40996;DHT22;26723;57.478;12.066;2022-08-18T04:47:09;18.90;99.90
40996;DHT22;26723;57.478;12.066;2022-08-18T04:50:20;19.00;99.90
40996;DHT22;26723;57.478;12.066;2022-08-18T04:53:36;19.00;99.90
40996;DHT22;26723;57.478;12.066;2022-08-18T04:56:53;19.00;99.90
40996;DHT22;26723;57.478;12.066;2022-08-18T05:00:04;19.00;99.90
40996;DHT22;26723;57.478;12.066;2022-08-18T05:03:13;19.10;99.90
40996;DHT22;26723;57.478;12.066;2022-08-18T05:06:24;19.10;99.90
40996;DHT22;26723;57.478;12.066;2022-08-18T05:09:33;19.10;99.90
40996;DHT22;26723;57.478;12.066;2022-08-18T05:12:47;19.10;99.90
40996;DHT22;26723;57.478;12.066;2022-08-18T05:15:58;19.10;99.90
40996;DHT22;26723;57.478;12.066;2022-08-18T05:19:24;19.10;99.90
40996;DHT22;26723;57.478;12.066;2022-08-18T05:22:37;19.20;99.90
40996;DHT22;26723;57.478;12.066;2022-08-18T05:25:46;19.20;99.90
40996;DHT22;26723;57.478;12.066;2022-08-18T05:28:58;19.20;99.90
40996;DHT22;26723;57.478;12.066;2022-08-18T05:32:24;19.20;99.90
40996;DHT22;26723;57.478;12.066;2022-08-18T05:35:42;19.10;99.90
40996;DHT22;26723;57.478;12.066;2022-08-18T05:39:00;19.10;99.90
40996;DHT22;26723;57.478;12.066;2022-08-18T05:42:13;19.10;99.90
40996;DHT22;26723;57.478;12.066;2022-08-18T05:45:23;19.10;99.90
40996;DHT22;26723;57.478;12.066;2022-08-18T05:48:33;19.10;99.90
40996;DHT22;26723;57.478;12.066;2022-08-18T05:51:51;19.30;99.90
40996;DHT22;26723;57.478;12.066;2022-08-18T05:55:05;19.40;99.90
40996;DHT22;26723;57.478;12.066;2022-08-18T05:58:34;19.40;99.90
40996;DHT22;26723;57.478;12.066;2022-08-18T06:01:47;19.50;99.90
40996;DHT22;26723;57.478;12.066;2022-08-18T06:05:02;19.50;99.90
40996;DHT22;26723;57.478;12.066;2022-08-18T06:08:13;19.50;99.90
40996;DHT22;26723;57.478;12.066;2022-08-18T06:11:23;19.50;99.90
40996;DHT22;26723;57.478;12.066;2022-08-18T06:14:31;19.60;99.90
40996;DHT22;26723;57.478;12.066;2022-08-18T06:21:36;19.60;99.90
40996;DHT22;26723;57.478;12.066;2022-08-18T06:24:50;19.60;99.90
40996;DHT22;26723;57.478;12.066;2022-08-18T06:28:06;19.60;99.90
40996;DHT22;26723;57.478;12.066;2022-08-18T06:31:19;19.60;99.90
40996;DHT22;26723;57.478;12.066;2022-08-18T06:34:55;19.70;99.90
40996;DHT22;26723;57.478;12.066;2022-08-18T06:38:20;19.60;99.90
40996;DHT22;26723;57.478;12.066;2022-08-18T06:41:51;19.60;99.90
40996;DHT22;26723;57.478;12.066;2022-08-18T06:45:05;19.50;99.90
40996;DHT22;26723;57.478;12.066;2022-08-18T06:48:24;19.50;99.90
40996;DHT22;26723;57.478;12.066;2022-08-18T06:51:34;19.50;99.90
40996;DHT22;26723;57.478;12.066;2022-08-18T06:54:47;19.50;99.90
40996;DHT22;26723;57.478;12.066;2022-08-18T06:57:58;19.60;99.90
40996;DHT22;26723;57.478;12.066;2022-08-18T07:01:09;19.60;99.90
40996;DHT22;26723;57.478;12.066;2022-08-18T07:08:12;19.70;99.90
40996;DHT22;26723;57.478;12.066;2022-08-18T07:11:26;19.70;99.90
40996;DHT22;26723;57.478;12.066;2022-08-18T07:14:42;19.70;99.90
40996;DHT22;26723;57.478;12.066;2022-08-18T07:18:02;19.80;99.90
40996;DHT22;26723;57.478;12.066;2022-08-18T07:21:24;19.80;99.90
40996;DHT22;26723;57.478;12.066;2022-08-18T07:24:38;19.80;99.90
40996;DHT22;26723;57.478;12.066;2022-08-18T07:27:48;19.70;99.90
40996;DHT22;26723;57.478;12.066;2022-08-18T07:31:26;19.80;99.90
40996;DHT22;26723;57.478;12.066;2022-08-18T07:34:45;19.70;99.90
40996;DHT22;26723;57.478;12.066;2022-08-18T07:38:02;19.70;99.90
40996;DHT22;26723;57.478;12.066;2022-08-18T07:41:37;19.70;99.90
40996;DHT22;26723;57.478;12.066;2022-08-18T07:44:52;19.80;99.90
40996;DHT22;26723;57.478;12.066;2022-08-18T07:48:06;19.80;99.90
40996;DHT22;26723;57.478;12.066;2022-08-18T07:51:45;19.90;99.90
40996;DHT22;26723;57.478;12.066;2022-08-18T07:55:05;20.00;99.90
40996;DHT22;26723;57.478;12.066;2022-08-18T07:58:23;20.00;99.90
40996;DHT22;26723;57.478;12.066;2022-08-18T08:01:35;20.00;99.90
40996;DHT22;26723;57.478;12.066;2022-08-18T08:04:53;20.00;99.90
40996;DHT22;26723;57.478;12.066;2022-08-18T08:08:14;20.10;99.90
40996;DHT22;26723;57.478;12.066;2022-08-18T08:11:38;20.10;99.90
40996;DHT22;26723;57.478;12.066;2022-08-18T08:14:57;20.00;99.90
40996;DHT22;26723;57.478;12.066;2022-08-18T08:18:12;20.00;99.90
40996;DHT22;26723;57.478;12.066;2022-08-18T08:21:29;20.00;99.90
40996;DHT22;26723;57.478;12.066;2022-08-18T08:24:46;20.00;99.90
40996;DHT22;26723;57.478;12.066;2022-08-18T08:28:07;20.10;99.90
40996;DHT22;26723;57.478;12.066;2022-08-18T14:12:35;26.20;99.90
40996;DHT22;26723;57.478;12.066;2022-08-18T14:15:46;26.00;99.90
40996;DHT22;26723;57.478;12.066;2022-08-18T14:18:59;25.90;99.90
40996;DHT22;26723;57.478;12.066;2022-08-18T14:22:28;25.90;99.90
40996;DHT22;26723;57.478;12.066;2022-08-18T14:25:54;25.90;99.90
40996;DHT22;26723;57.478;12.066;2022-08-18T14:29:24;25.80;99.90
40996;DHT22;26723;57.478;12.066;2022-08-18T14:32:52;25.80;99.90
40996;DHT22;26723;57.478;12.066;2022-08-18T14:36:04;25.70;99.90
40996;DHT22;26723;57.478;12.066;2022-08-18T14:39:15;25.50;99.90
40996;DHT22;26723;57.478;12.066;2022-08-18T14:42:24;25.40;99.90
40996;DHT22;26723;57.478;12.066;2022-08-18T14:45:54;25.40;99.90
40996;DHT22;26723;57.478;12.066;2022-08-18T14:49:04;25.30;99.90
40996;DHT22;26723;57.478;12.066;2022-08-18T14:52:12;25.30;99.90
40996;DHT22;26723;57.478;12.066;2022-08-18T14:55:20;25.40;99.90
40996;DHT22;26723;57.478;12.066;2022-08-18T14:58:31;25.40;99.90
40996;DHT22;26723;57.478;12.066;2022-08-18T15:01:40;25.20;99.90
40996;DHT22;26723;57.478;12.066;2022-08-18T15:04:52;25.10;99.90
40996;DHT22;26723;57.478;12.066;2022-08-18T15:08:04;25.10;99.90
40996;DHT22;26723;57.478;12.066;2022-08-18T15:11:12;25.20;99.90
40996;DHT22;26723;57.478;12.066;2022-08-18T15:14:22;25.20;99.90
40996;DHT22;26723;57.478;12.066;2022-08-18T15:17:40;25.20;99.90
40996;DHT22;26723;57.478;12.066;2022-08-18T15:20:49;25.20;99.90
40996;DHT22;26723;57.478;12.066;2022-08-18T15:24:25;25.10;99.90
40996;DHT22;26723;57.478;12.066;2022-08-18T15:27:53;25.10;99.90
40996;DHT22;26723;57.478;12.066;2022-08-18T15:31:01;25.10;99.90
40996;DHT22;26723;57.478;12.066;2022-08-18T15:34:31;25.10;99.90
40996;DHT22;26723;57.478;12.066;2022-08-18T15:37:57;25.10;99.90
40996;DHT22;26723;57.478;12.066;2022-08-18T15:41:26;25.00;99.90
40996;DHT22;26723;57.478;12.066;2022-08-18T15:44:37;24.90;99.90
40996;DHT22;26723;57.478;12.066;2022-08-18T15:47:45;24.80;99.90
40996;DHT22;26723;57.478;12.066;2022-08-18T15:50:56;24.70;99.90
40996;DHT22;26723;57.478;12.066;2022-08-18T15:54:18;24.40;99.90
40996;DHT22;26723;57.478;12.066;2022-08-18T15:57:26;24.50;99.90
40996;DHT22;26723;57.478;12.066;2022-08-18T16:00:46;24.50;99.90
40996;DHT22;26723;57.478;12.066;2022-08-18T16:03:56;24.40;99.90
40996;DHT22;26723;57.478;12.066;2022-08-18T16:07:07;24.30;99.90
40996;DHT22;26723;57.478;12.066;2022-08-18T16:10:17;24.10;99.90
40996;DHT22;26723;57.478;12.066;2022-08-18T16:13:26;24.20;99.90
40996;DHT22;26723;57.478;12.066;2022-08-18T16:16:35;24.20;99.90
40996;DHT22;26723;57.478;12.066;2022-08-18T16:19:44;24.10;99.90
40996;DHT22;26723;57.478;12.066;2022-08-18T16:22:54;24.00;99.90
40996;DHT22;26723;57.478;12.066;2022-08-18T16:26:04;23.90;99.90
40996;DHT22;26723;57.478;12.066;2022-08-18T16:29:12;24.10;99.90
40996;DHT22;26723;57.478;12.066;2022-08-18T16:32:20;24.30;99.90
40996;DHT22;26723;57.478;12.066;2022-08-18T16:35:29;24.40;99.90
40996;DHT22;26723;57.478;12.066;2022-08-18T16:38:40;24.50;99.90
40996;DHT22;26723;57.478;12.066;2022-08-18T16:41:52;24.70;99.90
40996;DHT22;26723;57.478;12.066;2022-08-18T16:45:03;24.80;99.90
40996;DHT22;26723;57.478;12.066;2022-08-18T16:48:11;24.90;99.90
40996;DHT22;26723;57.478;12.066;2022-08-18T16:51:24;24.90;99.90
40996;DHT22;26723;57.478;12.066;2022-08-18T16:54:34;24.80;99.90
40996;DHT22;26723;57.478;12.066;2022-08-18T16:57:42;24.50;99.90
40996;DHT22;26723;57.478;12.066;2022-08-18T17:01:08;24.40;99.90
40996;DHT22;26723;57.478;12.066;2022-08-18T17:04:54;24.60;99.90
40996;DHT22;26723;57.478;12.066;2022-08-18T17:08:08;24.70;99.90
40996;DHT22;26723;57.478;12.066;2022-08-18T17:11:18;24.80;99.90
40996;DHT22;26723;57.478;12.066;2022-08-18T17:14:28;24.80;99.90
40996;DHT22;26723;57.478;12.066;2022-08-18T17:17:36;24.80;99.90
40996;DHT22;26723;57.478;12.066;2022-08-18T17:20:45;24.80;99.90
40996;DHT22;26723;57.478;12.066;2022-08-18T17:23:54;24.80;99.90
40996;DHT22;26723;57.478;12.066;2022-08-18T17:27:13;24.80;99.90
40996;DHT22;26723;57.478;12.066;2022-08-18T17:30:38;24.90;99.90
40996;DHT22;26723;57.478;12.066;2022-08-18T17:33:51;24.80;99.90
40996;DHT22;26723;57.478;12.066;2022-08-18T17:37:01;24.80;99.90
40996;DHT22;26723;57.478;12.066;2022-08-18T17:40:20;24.80;99.90
40996;DHT22;26723;57.478;12.066;2022-08-18T17:43:37;24.80;99.90
40996;DHT22;26723;57.478;12.066;2022-08-18T17:46:51;24.70;99.90
40996;DHT22;26723;57.478;12.066;2022-08-18T17:50:07;24.70;99.90
40996;DHT22;26723;57.478;12.066;2022-08-18T17:53:38;24.70;99.90
40996;DHT22;26723;57.478;12.066;2022-08-18T17:56:51;24.50;99.90
40996;DHT22;26723;57.478;12.066;2022-08-18T18:00:07;24.50;99.90
40996;DHT22;26723;57.478;12.066;2022-08-18T18:03:17;24.40;99.90
40996;DHT22;26723;57.478;12.066;2022-08-18T18:06:34;24.50;99.90
40996;DHT22;26723;57.478;12.066;2022-08-18T18:09:55;24.50;99.90
40996;DHT22;26723;57.478;12.066;2022-08-18T18:13:07;24.40;99.90
40996;DHT22;26723;57.478;12.066;2022-08-18T18:16:26;24.30;99.90
40996;DHT22;26723;57.478;12.066;2022-08-18T18:19:35;24.20;99.90
40996;DHT22;26723;57.478;12.066;2022-08-18T18:22:44;24.20;99.90
40996;DHT22;26723;57.478;12.066;2022-08-18T18:25:52;24.20;99.90
40996;DHT22;26723;57.478;12.066;2022-08-18T18:29:16;24.10;99.90
40996;DHT22;26723;57.478;12.066;2022-08-18T18:32:30;23.60;99.90
40996;DHT22;26723;57.478;12.066;2022-08-18T18:35:49;23.30;99.90
40996;DHT22;26723;57.478;12.066;2022-08-18T18:39:09;23.20;99.90
40996;DHT22;26723;57.478;12.066;2022-08-18T18:43:23;23.00;99.90
40996;DHT22;26723;57.478;12.066;2022-08-18T18:46:44;22.90;99.90
40996;DHT22;26723;57.478;12.066;2022-08-18T18:50:03;22.80;99.90
40996;DHT22;26723;57.478;12.066;2022-08-18T18:53:20;22.70;99.90
40996;DHT22;26723;57.478;12.066;2022-08-18T18:56:36;22.50;99.90
40996;DHT22;26723;57.478;12.066;2022-08-18T18:59:54;22.40;99.90
40996;DHT22;26723;57.478;12.066;2022-08-18T19:03:08;22.30;99.90
40996;DHT22;26723;57.478;12.066;2022-08-18T19:06:26;22.10;99.90
40996;DHT22;26723;57.478;12.066;2022-08-18T19:09:40;22.10;99.90
40996;DHT22;26723;57.478;12.066;2022-08-18T19:13:01;22.00;99.90
40996;DHT22;26723;57.478;12.066;2022-08-18T19:16:31;22.00;99.90
40996;DHT22;26723;57.478;12.066;2022-08-18T19:19:43;22.00;99.90
40996;DHT22;26723;57.478;12.066;2022-08-18T19:23:02;22.00;99.90
40996;DHT22;26723;57.478;12.066;2022-08-18T19:26:19;21.90;99.90
40996;DHT22;26723;57.478;12.066;2022-08-18T19:29:38;21.90;99.90
40996;DHT22;26723;57.478;12.066;2022-08-18T19:32:49;21.80;99.90
40996;DHT22;26723;57.478;12.066;2022-08-18T19:36:04;21.70;99.90
40996;DHT22;26723;57.478;12.066;2022-08-18T19:39:31;21.50;99.90
40996;DHT22;26723;57.478;12.066;2022-08-18T19:42:50;21.40;99.90
40996;DHT22;26723;57.478;12.066;2022-08-18T19:46:06;21.40;99.90
40996;DHT22;26723;57.478;12.066;2022-08-18T19:49:21;21.30;99.90
40996;DHT22;26723;57.478;12.066;2022-08-18T19:52:48;21.20;99.90
40996;DHT22;26723;57.478;12.066;2022-08-18T19:56:11;21.20;99.90
40996;DHT22;26723;57.478;12.066;2022-08-18T19:59:43;21.20;99.90
40996;DHT22;26723;57.478;12.066;2022-08-18T20:03:11;21.20;99.90
40996;DHT22;26723;57.478;12.066;2022-08-18T20:10:22;21.10;99.90
40996;DHT22;26723;57.478;12.066;2022-08-18T20:13:38;21.00;99.90
40996;DHT22;26723;57.478;12.066;2022-08-18T20:17:15;21.00;99.90
40996;DHT22;26723;57.478;12.066;2022-08-18T20:20:25;20.90;99.90
40996;DHT22;26723;57.478;12.066;2022-08-18T20:23:35;21.00;99.90
40996;DHT22;26723;57.478;12.066;2022-08-18T20:30:57;20.90;99.90
40996;DHT22;26723;57.478;12.066;2022-08-18T20:34:12;20.90;99.90
40996;DHT22;26723;57.478;12.066;2022-08-18T20:37:23;20.90;99.90
40996;DHT22;26723;57.478;12.066;2022-08-18T20:40:40;20.90;99.90
40996;DHT22;26723;57.478;12.066;2022-08-18T20:43:51;20.90;99.90
40996;DHT22;26723;57.478;12.066;2022-08-18T20:47:24;20.90;99.90
40996;DHT22;26723;57.478;12.066;2022-08-18T20:50:55;20.90;99.90
40996;DHT22;26723;57.478;12.066;2022-08-18T20:54:15;20.80;99.90
40996;DHT22;26723;57.478;12.066;2022-08-18T20:57:26;20.80;99.90
40996;DHT22;26723;57.478;12.066;2022-08-18T21:00:43;20.80;99.90
40996;DHT22;26723;57.478;12.066;2022-08-18T21:03:53;20.70;99.90
40996;DHT22;26723;57.478;12.066;2022-08-18T21:07:19;20.70;99.90
40996;DHT22;26723;57.478;12.066;2022-08-18T21:10:48;20.70;99.90
40996;DHT22;26723;57.478;12.066;2022-08-18T21:13:58;20.60;99.90
40996;DHT22;26723;57.478;12.066;2022-08-18T21:17:12;20.60;99.90
40996;DHT22;26723;57.478;12.066;2022-08-18T21:20:23;20.50;99.90
40996;DHT22;26723;57.478;12.066;2022-08-18T21:23:33;20.50;99.90
40996;DHT22;26723;57.478;12.066;2022-08-18T21:26:45;20.50;99.90
40996;DHT22;26723;57.478;12.066;2022-08-18T21:29:55;20.50;99.90
40996;DHT22;26723;57.478;12.066;2022-08-18T21:33:17;20.40;99.90
40996;DHT22;26723;57.478;12.066;2022-08-18T21:36:27;20.40;99.90
40996;DHT22;26723;57.478;12.066;2022-08-18T21:39:48;20.50;99.90
40996;DHT22;26723;57.478;12.066;2022-08-18T21:42:56;20.50;99.90
40996;DHT22;26723;57.478;12.066;2022-08-18T21:46:05;20.40;99.90
40996;DHT22;26723;57.478;12.066;2022-08-18T21:49:23;20.50;99.90
40996;DHT22;26723;57.478;12.066;2022-08-18T21:52:35;20.50;99.90
40996;DHT22;26723;57.478;12.066;2022-08-18T21:55:45;20.50;99.90
40996;DHT22;26723;57.478;12.066;2022-08-18T21:59:06;20.50;99.90
40996;DHT22;26723;57.478;12.066;2022-08-18T22:02:19;20.50;99.90
40996;DHT22;26723;57.478;12.066;2022-08-18T22:05:29;20.40;99.90
40996;DHT22;26723;57.478;12.066;2022-08-18T22:09:01;20.40;99.90
40996;DHT22;26723;57.478;12.066;2022-08-18T22:12:32;20.40;99.90
40996;DHT22;26723;57.478;12.066;2022-08-18T22:15:58;20.50;99.90
40996;DHT22;26723;57.478;12.066;2022-08-18T22:19:10;20.40;99.90
40996;DHT22;26723;57.478;12.066;2022-08-18T22:22:19;20.40;99.90
40996;DHT22;26723;57.478;12.066;2022-08-18T22:25:47;20.40;99.90
40996;DHT22;26723;57.478;12.066;2022-08-18T22:28:59;20.30;99.90
40996;DHT22;26723;57.478;12.066;2022-08-18T22:32:08;20.30;99.90
40996;DHT22;26723;57.478;12.066;2022-08-18T22:35:16;20.30;99.90
40996;DHT22;26723;57.478;12.066;2022-08-18T22:38:25;20.30;99.90
40996;DHT22;26723;57.478;12.066;2022-08-18T22:41:36;20.20;99.90
40996;DHT22;26723;57.478;12.066;2022-08-18T22:44:44;20.20;99.90
40996;DHT22;26723;57.478;12.066;2022-08-18T22:47:52;20.10;99.90
40996;DHT22;26723;57.478;12.066;2022-08-18T22:51:03;20.10;99.90
40996;DHT22;26723;57.478;12.066;2022-08-18T22:54:11;20.00;99.90
40996;DHT22;26723;57.478;12.066;2022-08-18T22:57:22;20.00;99.90
40996;DHT22;26723;57.478;12.066;2022-08-18T23:00:30;19.90;99.90
40996;DHT22;26723;57.478;12.066;2022-08-18T23:03:40;19.90;99.90
40996;DHT22;26723;57.478;12.066;2022-08-18T23:06:49;19.90;99.90
40996;DHT22;26723;57.478;12.066;2022-08-18T23:09:58;19.80;99.90
40996;DHT22;26723;57.478;12.066;2022-08-18T23:13:08;19.80;99.90
40996;DHT22;26723;57.478;12.066;2022-08-18T23:16:17;19.80;99.90
40996;DHT22;26723;57.478;12.066;2022-08-18T23:19:38;19.80;99.90
40996;DHT22;26723;57.478;12.066;2022-08-18T23:22:46;19.70;99.90
40996;DHT22;26723;57.478;12.066;2022-08-18T23:25:55;19.80;99.90
40996;DHT22;26723;57.478;12.066;2022-08-18T23:29:05;19.80;99.90
40996;DHT22;26723;57.478;12.066;2022-08-18T23:32:17;19.70;99.90
40996;DHT22;26723;57.478;12.066;2022-08-18T23:35:25;19.70;99.90
40996;DHT22;26723;57.478;12.066;2022-08-18T23:38:33;19.70;99.90
40996;DHT22;26723;57.478;12.066;2022-08-18T23:41:44;19.70;99.90
40996;DHT22;26723;57.478;12.066;2022-08-18T23:44:53;19.70;99.90
40996;DHT22;26723;57.478;12.066;2022-08-18T23:48:04;19.60;99.90
40996;DHT22;26723;57.478;12.066;2022-08-18T23:51:25;19.60;99.90
40996;DHT22;26723;57.478;12.066;2022-08-18T23:54:35;19.60;99.90
40996;DHT22;26723;57.478;12.066;2022-08-18T23:57:43;19.60;99.90
